createdAt,value
2018-11-21T00:00:01.888Z,0.99
2018-11-21T00:00:06.310Z,0.99
2018-11-21T00:00:10.618Z,0.99
2018-11-21T00:00:14.924Z,0.99
2018-11-21T00:00:19.226Z,0.99
2018-11-21T00:00:23.467Z,0.99
2018-11-21T00:00:27.766Z,0.98
2018-11-21T00:00:32.069Z,0.98
2018-11-21T00:00:36.267Z,0.98
2018-11-21T00:00:40.575Z,0.99
2018-11-21T00:00:44.880Z,0.98
2018-11-21T00:00:49.081Z,0.98
2018-11-21T00:00:53.393Z,0.98
2018-11-21T00:00:57.706Z,0.98
2018-11-21T00:01:02.009Z,0.98
2018-11-21T00:01:06.321Z,0.99
2018-11-21T00:01:10.636Z,0.98
2018-11-21T00:01:14.940Z,0.99
2018-11-21T00:01:19.240Z,0.98
2018-11-21T00:01:23.546Z,0.98
2018-11-21T00:01:27.852Z,0.98
2018-11-21T00:01:32.160Z,0.98
2018-11-21T00:01:36.375Z,0.97
2018-11-21T00:01:40.682Z,0.97
2018-11-21T00:01:44.908Z,0.97
2018-11-21T00:01:49.216Z,0.97
2018-11-21T00:01:53.414Z,0.97
2018-11-21T00:01:57.631Z,0.98
2018-11-21T00:02:01.937Z,0.97
2018-11-21T00:02:06.248Z,0.96
2018-11-21T00:02:10.561Z,0.97
2018-11-21T00:02:14.916Z,0.96
2018-11-21T00:02:19.225Z,0.97
2018-11-21T00:02:23.538Z,0.97
2018-11-21T00:02:28.764Z,0.97
2018-11-21T00:02:33.081Z,0.96
2018-11-21T00:02:37.423Z,0.97
2018-11-21T00:02:41.743Z,0.96
2018-11-21T00:02:46.044Z,0.97
2018-11-21T00:02:50.245Z,0.97
2018-11-21T00:02:54.551Z,0.96
2018-11-21T00:02:58.857Z,0.96
2018-11-21T00:03:03.174Z,0.97
2018-11-21T00:03:07.485Z,0.96
2018-11-21T00:03:11.806Z,0.96
2018-11-21T00:03:16.126Z,0.96
2018-11-21T00:03:20.438Z,0.96
2018-11-21T00:03:24.746Z,0.96
2018-11-21T00:03:28.945Z,0.96
2018-11-21T00:03:33.251Z,0.96
2018-11-21T00:03:37.553Z,0.95
2018-11-21T00:03:41.759Z,0.95
2018-11-21T00:03:46.071Z,0.95
2018-11-21T00:03:50.380Z,0.95
2018-11-21T00:03:54.576Z,0.96
2018-11-21T00:03:58.884Z,0.95
2018-11-21T00:04:03.185Z,0.95
2018-11-21T00:04:07.496Z,0.95
2018-11-21T00:04:11.807Z,0.94
2018-11-21T00:04:16.114Z,0.95
2018-11-21T00:04:20.435Z,0.95
2018-11-21T00:04:24.739Z,0.95
2018-11-21T00:04:29.049Z,0.94
2018-11-21T00:04:33.353Z,0.94
2018-11-21T00:04:37.658Z,0.94
2018-11-21T00:04:41.961Z,0.94
2018-11-21T00:04:46.271Z,0.94
2018-11-21T00:04:50.578Z,0.94
2018-11-21T00:04:54.897Z,0.93
2018-11-21T00:04:59.094Z,0.94
2018-11-21T00:05:03.452Z,0.93
2018-11-21T00:05:07.657Z,0.93
2018-11-21T00:05:11.966Z,0.93
2018-11-21T00:05:16.278Z,0.94
2018-11-21T00:05:20.587Z,0.93
2018-11-21T00:05:24.893Z,0.93
2018-11-21T00:05:29.195Z,0.94
2018-11-21T00:05:33.548Z,0.94
2018-11-21T00:05:37.854Z,0.93
2018-11-21T00:05:42.163Z,0.93
2018-11-21T00:05:46.474Z,0.94
2018-11-21T00:05:50.779Z,0.92
2018-11-21T00:05:55.088Z,0.93
2018-11-21T00:05:59.391Z,0.94
2018-11-21T00:06:03.709Z,0.94
2018-11-21T00:06:08.022Z,0.93
2018-11-21T00:06:12.376Z,0.94
2018-11-21T00:06:16.684Z,0.93
2018-11-21T00:06:20.878Z,0.94
2018-11-21T00:06:25.080Z,0.93
2018-11-21T00:06:29.394Z,0.93
2018-11-21T00:06:33.707Z,0.93
2018-11-21T00:06:38.013Z,0.93
2018-11-21T00:06:42.315Z,0.93
2018-11-21T00:06:46.621Z,0.93
2018-11-21T00:06:50.932Z,0.92
2018-11-21T00:06:55.280Z,0.93
2018-11-21T00:06:59.750Z,0.93
2018-11-21T00:07:04.060Z,0.93
2018-11-21T00:07:08.380Z,0.93
2018-11-21T00:07:12.688Z,0.93
2018-11-21T00:07:17.013Z,0.92
2018-11-21T00:07:21.352Z,0.92
2018-11-21T00:07:25.661Z,0.92
2018-11-21T00:07:29.861Z,0.91
2018-11-21T00:07:34.182Z,0.93
2018-11-21T00:07:38.507Z,0.92
2018-11-21T00:07:42.815Z,0.92
2018-11-21T00:07:47.024Z,0.92
2018-11-21T00:07:51.328Z,0.91
2018-11-21T00:07:55.632Z,0.92
2018-11-21T00:07:59.824Z,0.91
2018-11-21T00:08:04.236Z,0.91
2018-11-21T00:08:08.447Z,0.91
2018-11-21T00:08:12.765Z,0.91
2018-11-21T00:08:17.078Z,0.9
2018-11-21T00:08:21.400Z,0.9
2018-11-21T00:08:25.722Z,0.9
2018-11-21T00:08:30.028Z,0.9
2018-11-21T00:08:34.333Z,0.9
2018-11-21T00:08:38.636Z,0.91
2018-11-21T00:08:42.947Z,0.9
2018-11-21T00:08:47.298Z,0.91
2018-11-21T00:08:51.606Z,0.91
2018-11-21T00:08:55.917Z,0.91
2018-11-21T00:09:00.227Z,0.92
2018-11-21T00:09:04.581Z,0.92
2018-11-21T00:09:08.787Z,0.91
2018-11-21T00:09:13.103Z,0.92
2018-11-21T00:09:17.417Z,0.91
2018-11-21T00:09:21.717Z,0.91
2018-11-21T00:09:26.022Z,0.91
2018-11-21T00:09:30.331Z,0.91
2018-11-21T00:09:34.646Z,0.92
2018-11-21T00:09:38.951Z,0.91
2018-11-21T00:09:43.250Z,0.91
2018-11-21T00:09:47.555Z,0.9
2018-11-21T00:09:51.862Z,0.89
2018-11-21T00:09:56.167Z,0.9
2018-11-21T00:10:00.476Z,0.91
2018-11-21T00:10:04.785Z,0.9
2018-11-21T00:10:09.204Z,0.9
2018-11-21T00:10:13.516Z,0.9
2018-11-21T00:10:17.819Z,0.89
2018-11-21T00:10:22.121Z,0.9
2018-11-21T00:10:26.439Z,0.91
2018-11-21T00:10:30.652Z,0.89
2018-11-21T00:10:34.959Z,0.9
2018-11-21T00:10:39.258Z,0.91
2018-11-21T00:10:43.564Z,0.9
2018-11-21T00:10:47.869Z,0.9
2018-11-21T00:10:52.174Z,0.9
2018-11-21T00:10:56.481Z,0.89
2018-11-21T00:11:00.789Z,0.9
2018-11-21T00:11:05.093Z,0.9
2018-11-21T00:11:09.402Z,0.9
2018-11-21T00:11:13.597Z,0.91
2018-11-21T00:11:17.908Z,0.91
2018-11-21T00:11:22.115Z,0.9
2018-11-21T00:11:26.423Z,0.9
2018-11-21T00:11:30.728Z,0.9
2018-11-21T00:11:35.046Z,0.9
2018-11-21T00:11:39.344Z,0.89
2018-11-21T00:11:43.645Z,0.89
2018-11-21T00:11:47.843Z,0.91
2018-11-21T00:11:52.192Z,0.9
2018-11-21T00:11:56.497Z,0.89
2018-11-21T00:12:00.706Z,0.9
2018-11-21T00:12:05.016Z,0.9
2018-11-21T00:12:09.321Z,0.9
2018-11-21T00:12:13.626Z,0.89
2018-11-21T00:12:17.931Z,0.89
2018-11-21T00:12:22.235Z,0.89
2018-11-21T00:12:26.547Z,0.89
2018-11-21T00:12:30.854Z,0.9
2018-11-21T00:12:35.170Z,0.9
2018-11-21T00:12:39.507Z,0.9
2018-11-21T00:12:43.807Z,0.9
2018-11-21T00:12:48.118Z,0.9
2018-11-21T00:12:52.431Z,0.9
2018-11-21T00:12:56.743Z,0.9
2018-11-21T00:13:01.058Z,0.9
2018-11-21T00:13:05.377Z,0.89
2018-11-21T00:13:09.688Z,0.91
2018-11-21T00:13:13.899Z,0.91
2018-11-21T00:13:18.208Z,0.9
2018-11-21T00:13:22.409Z,0.9
2018-11-21T00:13:26.717Z,0.9
2018-11-21T00:13:31.023Z,0.9
2018-11-21T00:13:35.225Z,0.9
2018-11-21T00:13:39.529Z,0.9
2018-11-21T00:13:43.745Z,0.91
2018-11-21T00:13:48.052Z,0.91
2018-11-21T00:13:52.354Z,0.9
2018-11-21T00:13:56.657Z,0.9
2018-11-21T00:14:00.959Z,0.89
2018-11-21T00:14:05.427Z,0.9
2018-11-21T00:14:09.738Z,0.91
2018-11-21T00:14:13.949Z,0.9
2018-11-21T00:14:18.295Z,0.91
2018-11-21T00:14:22.598Z,0.91
2018-11-21T00:14:26.900Z,0.91
2018-11-21T00:14:31.207Z,0.91
2018-11-21T00:14:35.514Z,0.91
2018-11-21T00:14:39.824Z,0.91
2018-11-21T00:14:44.021Z,0.89
2018-11-21T00:14:48.338Z,0.9
2018-11-21T00:14:52.653Z,0.9
2018-11-21T00:14:56.956Z,0.91
2018-11-21T00:15:01.261Z,0.91
2018-11-21T00:15:05.579Z,0.91
2018-11-21T00:15:09.903Z,0.91
2018-11-21T00:15:14.226Z,0.91
2018-11-21T00:15:18.536Z,0.91
2018-11-21T00:15:22.838Z,0.9
2018-11-21T00:15:27.140Z,0.91
2018-11-21T00:15:31.439Z,0.9
2018-11-21T00:15:35.749Z,0.9
2018-11-21T00:15:40.065Z,0.91
2018-11-21T00:15:44.372Z,0.91
2018-11-21T00:15:48.678Z,0.92
2018-11-21T00:15:52.982Z,0.91
2018-11-21T00:15:57.294Z,0.91
2018-11-21T00:16:01.599Z,0.91
2018-11-21T00:16:05.801Z,0.92
2018-11-21T00:16:10.016Z,0.91
2018-11-21T00:16:14.369Z,0.92
2018-11-21T00:16:18.680Z,0.93
2018-11-21T00:16:22.984Z,0.92
2018-11-21T00:16:27.288Z,0.92
2018-11-21T00:16:31.592Z,0.92
2018-11-21T00:16:35.891Z,0.93
2018-11-21T00:16:40.192Z,0.92
2018-11-21T00:16:44.501Z,0.93
2018-11-21T00:16:48.880Z,0.92
2018-11-21T00:16:53.193Z,0.93
2018-11-21T00:16:57.500Z,0.92
2018-11-21T00:17:01.803Z,0.92
2018-11-21T00:17:06.132Z,0.92
2018-11-21T00:17:10.445Z,0.92
2018-11-21T00:17:14.767Z,0.93
2018-11-21T00:17:19.080Z,0.92
2018-11-21T00:17:23.380Z,0.92
2018-11-21T00:17:27.684Z,0.91
2018-11-21T00:17:31.983Z,0.92
2018-11-21T00:17:36.291Z,0.91
2018-11-21T00:17:40.596Z,0.92
2018-11-21T00:17:44.904Z,0.91
2018-11-21T00:17:49.201Z,0.92
2018-11-21T00:17:53.551Z,0.92
2018-11-21T00:17:57.854Z,0.92
2018-11-21T00:18:02.202Z,0.92
2018-11-21T00:18:06.510Z,0.92
2018-11-21T00:18:10.819Z,0.92
2018-11-21T00:18:15.131Z,0.92
2018-11-21T00:18:19.438Z,0.92
2018-11-21T00:18:23.748Z,0.92
2018-11-21T00:18:28.054Z,0.92
2018-11-21T00:18:32.363Z,0.93
2018-11-21T00:18:36.669Z,0.93
2018-11-21T00:18:40.973Z,0.92
2018-11-21T00:18:45.325Z,0.91
2018-11-21T00:18:49.631Z,0.92
2018-11-21T00:18:57.028Z,0.92
2018-11-21T00:19:05.009Z,0.91
2018-11-21T00:19:09.322Z,0.92
2018-11-21T00:19:13.628Z,0.93
2018-11-21T00:19:17.936Z,0.92
2018-11-21T00:19:22.246Z,0.92
2018-11-21T00:19:26.551Z,0.92
2018-11-21T00:19:30.755Z,0.91
2018-11-21T00:19:35.061Z,0.91
2018-11-21T00:19:39.373Z,0.91
2018-11-21T00:19:43.680Z,0.92
2018-11-21T00:19:47.990Z,0.92
2018-11-21T00:19:52.296Z,0.92
2018-11-21T00:19:56.607Z,0.92
2018-11-21T00:20:00.918Z,0.92
2018-11-21T00:20:05.124Z,0.92
2018-11-21T00:20:09.436Z,0.91
2018-11-21T00:20:13.639Z,0.92
2018-11-21T00:20:17.862Z,0.91
2018-11-21T00:20:22.174Z,0.91
2018-11-21T00:20:26.482Z,0.91
2018-11-21T00:20:30.788Z,0.91
2018-11-21T00:20:35.094Z,0.91
2018-11-21T00:20:39.402Z,0.91
2018-11-21T00:20:43.715Z,0.91
2018-11-21T00:20:48.065Z,0.92
2018-11-21T00:20:52.379Z,0.92
2018-11-21T00:20:56.703Z,0.92
2018-11-21T00:21:01.004Z,0.91
2018-11-21T00:21:05.360Z,0.92
2018-11-21T00:21:09.676Z,0.92
2018-11-21T00:21:13.990Z,0.92
2018-11-21T00:21:18.292Z,0.91
2018-11-21T00:21:22.600Z,0.91
2018-11-21T00:21:26.913Z,0.92
2018-11-21T00:21:31.225Z,0.92
2018-11-21T00:21:35.421Z,0.93
2018-11-21T00:21:39.781Z,0.92
2018-11-21T00:21:44.088Z,0.92
2018-11-21T00:21:48.401Z,0.93
2018-11-21T00:21:52.713Z,0.93
2018-11-21T00:21:57.020Z,0.93
2018-11-21T00:22:01.323Z,0.92
2018-11-21T00:22:05.633Z,0.93
2018-11-21T00:22:09.936Z,0.93
2018-11-21T00:22:14.290Z,0.92
2018-11-21T00:22:18.596Z,0.93
2018-11-21T00:22:22.904Z,0.94
2018-11-21T00:22:27.134Z,0.94
2018-11-21T00:22:31.438Z,0.94
2018-11-21T00:22:35.738Z,0.95
2018-11-21T00:22:40.059Z,0.94
2018-11-21T00:22:44.366Z,0.95
2018-11-21T00:22:48.669Z,0.95
2018-11-21T00:22:52.976Z,0.96
2018-11-21T00:22:57.277Z,0.95
2018-11-21T00:23:01.596Z,0.96
2018-11-21T00:23:05.918Z,0.96
2018-11-21T00:23:10.227Z,0.96
2018-11-21T00:23:14.544Z,0.97
2018-11-21T00:23:18.850Z,0.97
2018-11-21T00:23:23.158Z,0.97
2018-11-21T00:23:27.459Z,0.98
2018-11-21T00:23:31.762Z,0.97
2018-11-21T00:23:36.068Z,0.98
2018-11-21T00:23:40.387Z,0.98
2018-11-21T00:23:44.695Z,1
2018-11-21T00:23:48.998Z,0.99
2018-11-21T00:23:53.297Z,0.99
2018-11-21T00:23:57.600Z,0.98
2018-11-21T00:24:01.955Z,0.99
2018-11-21T00:24:06.272Z,0.99
2018-11-21T00:24:10.584Z,1
2018-11-21T00:24:14.895Z,0.99
2018-11-21T00:24:19.197Z,1
2018-11-21T00:24:23.505Z,1
2018-11-21T00:24:27.829Z,1
2018-11-21T00:24:32.142Z,1
2018-11-21T00:24:36.451Z,1
2018-11-21T00:24:40.754Z,1.01
2018-11-21T00:24:45.057Z,1.01
2018-11-21T00:24:49.370Z,1
2018-11-21T00:24:53.670Z,1.01
2018-11-21T00:24:57.973Z,1.02
2018-11-21T00:25:02.381Z,1.01
2018-11-21T00:25:06.695Z,1.02
2018-11-21T00:25:11.018Z,1.02
2018-11-21T00:25:15.373Z,1.02
2018-11-21T00:25:19.690Z,1.02
2018-11-21T00:25:23.996Z,1.02
2018-11-21T00:25:28.198Z,1.02
2018-11-21T00:25:32.501Z,1.03
2018-11-21T00:25:36.819Z,1.03
2018-11-21T00:25:41.123Z,1.02
2018-11-21T00:25:45.424Z,1.03
2018-11-21T00:25:49.730Z,1.03
2018-11-21T00:25:54.037Z,1.04
2018-11-21T00:25:58.347Z,1.04
2018-11-21T00:26:02.663Z,1.05
2018-11-21T00:26:06.983Z,1.04
2018-11-21T00:26:11.332Z,1.03
2018-11-21T00:26:15.637Z,1.03
2018-11-21T00:26:19.949Z,1.04
2018-11-21T00:26:24.258Z,1.03
2018-11-21T00:26:28.563Z,1.05
2018-11-21T00:26:32.875Z,1.05
2018-11-21T00:26:37.078Z,1.05
2018-11-21T00:26:41.386Z,1.05
2018-11-21T00:26:45.697Z,1.04
2018-11-21T00:26:50.001Z,1.05
2018-11-21T00:26:54.301Z,1.05
2018-11-21T00:26:58.612Z,1.05
2018-11-21T00:27:02.933Z,1.05
2018-11-21T00:27:07.239Z,1.05
2018-11-21T00:27:11.557Z,1.06
2018-11-21T00:27:15.866Z,1.05
2018-11-21T00:27:20.182Z,1.06
2018-11-21T00:27:24.494Z,1.05
2018-11-21T00:27:28.797Z,1.05
2018-11-21T00:27:33.100Z,1.05
2018-11-21T00:27:37.423Z,1.05
2018-11-21T00:27:41.721Z,1.05
2018-11-21T00:27:46.022Z,1.05
2018-11-21T00:27:50.321Z,1.04
2018-11-21T00:27:54.651Z,1.05
2018-11-21T00:27:58.854Z,1.05
2018-11-21T00:28:03.161Z,1.05
2018-11-21T00:28:07.467Z,1.06
2018-11-21T00:28:11.767Z,1.06
2018-11-21T00:28:16.078Z,1.05
2018-11-21T00:28:20.387Z,1.05
2018-11-21T00:28:24.693Z,1.06
2018-11-21T00:28:28.995Z,1.07
2018-11-21T00:28:33.301Z,1.06
2018-11-21T00:28:37.610Z,1.06
2018-11-21T00:28:41.912Z,1.06
2018-11-21T00:28:46.223Z,1.06
2018-11-21T00:28:50.527Z,1.06
2018-11-21T00:28:54.736Z,1.06
2018-11-21T00:28:59.046Z,1.07
2018-11-21T00:29:03.360Z,1.06
2018-11-21T00:29:07.565Z,1.07
2018-11-21T00:29:11.867Z,1.06
2018-11-21T00:29:16.177Z,1.06
2018-11-21T00:29:20.490Z,1.06
2018-11-21T00:29:24.801Z,1.05
2018-11-21T00:29:29.107Z,1.06
2018-11-21T00:29:33.412Z,1.05
2018-11-21T00:29:37.715Z,1.06
2018-11-21T00:29:42.067Z,1.06
2018-11-21T00:29:46.371Z,1.06
2018-11-21T00:29:50.676Z,1.06
2018-11-21T00:29:54.974Z,1.04
2018-11-21T00:29:59.287Z,1.06
2018-11-21T00:30:03.531Z,1.06
2018-11-21T00:30:07.745Z,1.05
2018-11-21T00:30:11.963Z,1.05
2018-11-21T00:30:16.273Z,1.05
2018-11-21T00:30:20.595Z,1.05
2018-11-21T00:30:24.905Z,1.04
2018-11-21T00:30:29.220Z,1.05
2018-11-21T00:30:33.534Z,1.04
2018-11-21T00:30:37.741Z,1.04
2018-11-21T00:30:42.047Z,1.04
2018-11-21T00:30:46.364Z,1.04
2018-11-21T00:30:50.668Z,1.03
2018-11-21T00:30:55.016Z,1.03
2018-11-21T00:30:59.329Z,1.04
2018-11-21T00:31:03.542Z,1.05
2018-11-21T00:31:07.898Z,1.03
2018-11-21T00:31:12.210Z,1.03
2018-11-21T00:31:16.523Z,1.03
2018-11-21T00:31:20.867Z,1.03
2018-11-21T00:31:25.172Z,1.04
2018-11-21T00:31:29.482Z,1.05
2018-11-21T00:31:33.791Z,1.03
2018-11-21T00:31:38.103Z,1.04
2018-11-21T00:31:42.409Z,1.04
2018-11-21T00:31:46.715Z,1.04
2018-11-21T00:31:51.020Z,1.03
2018-11-21T00:31:55.322Z,1.04
2018-11-21T00:31:59.629Z,1.04
2018-11-21T00:32:03.839Z,1.04
2018-11-21T00:32:08.165Z,1.05
2018-11-21T00:32:12.469Z,1.02
2018-11-21T00:32:16.773Z,1.03
2018-11-21T00:32:21.079Z,1.04
2018-11-21T00:32:25.379Z,1.03
2018-11-21T00:32:29.683Z,1.03
2018-11-21T00:32:33.988Z,1.03
2018-11-21T00:32:38.288Z,1.04
2018-11-21T00:32:42.598Z,1.04
2018-11-21T00:32:46.910Z,1.04
2018-11-21T00:32:51.221Z,1.04
2018-11-21T00:32:55.518Z,1.02
2018-11-21T00:32:59.826Z,1.03
2018-11-21T00:33:04.127Z,1.03
2018-11-21T00:33:08.434Z,1.03
2018-11-21T00:33:12.737Z,1.02
2018-11-21T00:33:17.046Z,1.03
2018-11-21T00:33:21.353Z,1.02
2018-11-21T00:33:25.667Z,1.02
2018-11-21T00:33:29.982Z,1.03
2018-11-21T00:33:34.295Z,1.02
2018-11-21T00:33:38.610Z,1.02
2018-11-21T00:33:42.919Z,1.03
2018-11-21T00:33:47.244Z,1.03
2018-11-21T00:33:51.553Z,1.03
2018-11-21T00:33:55.880Z,1.03
2018-11-21T00:34:00.179Z,1.03
2018-11-21T00:34:04.493Z,1.02
2018-11-21T00:34:08.810Z,1.02
2018-11-21T00:34:13.120Z,1.02
2018-11-21T00:34:17.430Z,1.02
2018-11-21T00:34:21.731Z,1.02
2018-11-21T00:34:26.034Z,1.02
2018-11-21T00:34:30.345Z,1.03
2018-11-21T00:34:34.652Z,1.02
2018-11-21T00:34:38.978Z,1.02
2018-11-21T00:34:43.282Z,1.02
2018-11-21T00:34:47.585Z,1.02
2018-11-21T00:34:51.895Z,1.02
2018-11-21T00:34:56.208Z,1.02
2018-11-21T00:35:00.515Z,1.02
2018-11-21T00:35:04.903Z,1.02
2018-11-21T00:35:09.205Z,1.02
2018-11-21T00:35:13.518Z,1.02
2018-11-21T00:35:17.822Z,1.02
2018-11-21T00:35:22.127Z,1.02
2018-11-21T00:35:26.434Z,1.02
2018-11-21T00:35:30.744Z,1.02
2018-11-21T00:35:35.043Z,1.02
2018-11-21T00:35:39.352Z,1.03
2018-11-21T00:35:43.655Z,1.03
2018-11-21T00:35:47.957Z,1.02
2018-11-21T00:35:52.254Z,1.04
2018-11-21T00:35:56.562Z,1.02
2018-11-21T00:36:00.757Z,1.02
2018-11-21T00:36:05.074Z,1.02
2018-11-21T00:36:09.377Z,1.02
2018-11-21T00:36:13.683Z,1.02
2018-11-21T00:36:17.902Z,1.02
2018-11-21T00:36:22.221Z,1.02
2018-11-21T00:36:26.532Z,1.01
2018-11-21T00:36:30.832Z,1.02
2018-11-21T00:36:35.135Z,1.02
2018-11-21T00:36:39.453Z,1.02
2018-11-21T00:36:43.661Z,1.02
2018-11-21T00:36:47.968Z,1.02
2018-11-21T00:36:52.272Z,1.02
2018-11-21T00:36:56.580Z,1.01
2018-11-21T00:37:00.892Z,1.02
2018-11-21T00:37:05.200Z,1.02
2018-11-21T00:37:09.504Z,1.02
2018-11-21T00:37:13.814Z,1.02
2018-11-21T00:37:18.125Z,1.03
2018-11-21T00:37:22.435Z,1.03
2018-11-21T00:37:26.795Z,1.02
2018-11-21T00:37:31.104Z,1.03
2018-11-21T00:37:35.416Z,1.04
2018-11-21T00:37:39.725Z,1.05
2018-11-21T00:37:44.029Z,1.04
2018-11-21T00:37:48.343Z,1.05
2018-11-21T00:37:52.540Z,1.06
2018-11-21T00:37:56.739Z,1.05
2018-11-21T00:38:01.059Z,1.05
2018-11-21T00:38:05.512Z,1.06
2018-11-21T00:38:09.816Z,1.05
2018-11-21T00:38:14.023Z,1.07
2018-11-21T00:38:18.337Z,1.07
2018-11-21T00:38:22.639Z,1.06
2018-11-21T00:38:26.944Z,1.06
2018-11-21T00:38:31.248Z,1.06
2018-11-21T00:38:35.554Z,1.07
2018-11-21T00:38:39.860Z,1.07
2018-11-21T00:38:44.166Z,1.07
2018-11-21T00:38:48.484Z,1.07
2018-11-21T00:38:52.788Z,1.07
2018-11-21T00:38:57.095Z,1.07
2018-11-21T00:39:01.401Z,1.07
2018-11-21T00:39:05.713Z,1.08
2018-11-21T00:39:10.027Z,1.08
2018-11-21T00:39:14.229Z,1.09
2018-11-21T00:39:18.550Z,1.09
2018-11-21T00:39:22.856Z,1.09
2018-11-21T00:39:27.160Z,1.09
2018-11-21T00:39:31.463Z,1.09
2018-11-21T00:39:35.770Z,1.09
2018-11-21T00:39:40.076Z,1.09
2018-11-21T00:39:44.384Z,1.11
2018-11-21T00:39:48.687Z,1.11
2018-11-21T00:39:53.003Z,1.12
2018-11-21T00:39:57.322Z,1.11
2018-11-21T00:40:01.627Z,1.11
2018-11-21T00:40:05.944Z,1.12
2018-11-21T00:40:10.265Z,1.11
2018-11-21T00:40:14.584Z,1.12
2018-11-21T00:40:18.794Z,1.12
2018-11-21T00:40:23.105Z,1.13
2018-11-21T00:40:27.417Z,1.14
2018-11-21T00:40:31.753Z,1.14
2018-11-21T00:40:36.063Z,1.13
2018-11-21T00:40:40.368Z,1.14
2018-11-21T00:40:44.670Z,1.14
2018-11-21T00:40:49.008Z,1.15
2018-11-21T00:40:53.313Z,1.16
2018-11-21T00:40:57.621Z,1.16
2018-11-21T00:41:01.925Z,1.16
2018-11-21T00:41:06.295Z,1.17
2018-11-21T00:41:10.608Z,1.16
2018-11-21T00:41:14.916Z,1.17
2018-11-21T00:41:19.217Z,1.18
2018-11-21T00:41:23.522Z,1.17
2018-11-21T00:41:27.828Z,1.19
2018-11-21T00:41:32.144Z,1.18
2018-11-21T00:41:36.449Z,1.18
2018-11-21T00:41:40.762Z,1.19
2018-11-21T00:41:45.069Z,1.19
2018-11-21T00:41:49.369Z,1.2
2018-11-21T00:41:53.680Z,1.2
2018-11-21T00:41:57.987Z,1.2
2018-11-21T00:42:02.297Z,1.19
2018-11-21T00:42:06.610Z,1.21
2018-11-21T00:42:10.916Z,1.2
2018-11-21T00:42:15.220Z,1.2
2018-11-21T00:42:19.524Z,1.21
2018-11-21T00:42:23.827Z,1.22
2018-11-21T00:42:28.023Z,1.21
2018-11-21T00:42:32.329Z,1.22
2018-11-21T00:42:36.649Z,1.23
2018-11-21T00:42:48.078Z,1.24
2018-11-21T00:42:52.384Z,1.24
2018-11-21T00:42:56.686Z,1.23
2018-11-21T00:43:00.994Z,1.25
2018-11-21T00:43:05.307Z,1.25
2018-11-21T00:43:09.619Z,1.25
2018-11-21T00:43:13.923Z,1.25
2018-11-21T00:43:18.230Z,1.25
2018-11-21T00:43:22.539Z,1.26
2018-11-21T00:43:26.868Z,1.27
2018-11-21T00:43:31.175Z,1.26
2018-11-21T00:43:35.479Z,1.26
2018-11-21T00:43:39.779Z,1.26
2018-11-21T00:43:44.089Z,1.27
2018-11-21T00:43:48.404Z,1.27
2018-11-21T00:43:52.708Z,1.28
2018-11-21T00:43:57.016Z,1.28
2018-11-21T00:44:01.329Z,1.29
2018-11-21T00:44:05.644Z,1.3
2018-11-21T00:44:09.950Z,1.3
2018-11-21T00:44:14.275Z,1.3
2018-11-21T00:44:18.592Z,1.31
2018-11-21T00:44:22.907Z,1.31
2018-11-21T00:44:27.210Z,1.3
2018-11-21T00:44:31.515Z,1.31
2018-11-21T00:44:35.825Z,1.31
2018-11-21T00:44:40.148Z,1.32
2018-11-21T00:44:44.460Z,1.31
2018-11-21T00:44:48.769Z,1.31
2018-11-21T00:44:53.076Z,1.32
2018-11-21T00:44:57.378Z,1.32
2018-11-21T00:45:01.686Z,1.33
2018-11-21T00:45:06.016Z,1.33
2018-11-21T00:45:10.384Z,1.32
2018-11-21T00:45:14.703Z,1.34
2018-11-21T00:45:19.008Z,1.32
2018-11-21T00:45:23.324Z,1.34
2018-11-21T00:45:27.638Z,1.34
2018-11-21T00:45:31.829Z,1.34
2018-11-21T00:45:36.027Z,1.34
2018-11-21T00:45:40.332Z,1.34
2018-11-21T00:45:44.641Z,1.34
2018-11-21T00:45:48.955Z,1.35
2018-11-21T00:45:53.266Z,1.35
2018-11-21T00:45:57.585Z,1.34
2018-11-21T00:46:01.893Z,1.34
2018-11-21T00:46:06.210Z,1.35
2018-11-21T00:46:10.514Z,1.34
2018-11-21T00:46:14.825Z,1.33
2018-11-21T00:46:19.035Z,1.33
2018-11-21T00:46:23.338Z,1.35
2018-11-21T00:46:27.641Z,1.34
2018-11-21T00:46:31.937Z,1.33
2018-11-21T00:46:36.258Z,1.34
2018-11-21T00:46:40.565Z,1.34
2018-11-21T00:46:44.867Z,1.34
2018-11-21T00:46:49.166Z,1.35
2018-11-21T00:46:53.477Z,1.33
2018-11-21T00:46:57.780Z,1.34
2018-11-21T00:47:02.092Z,1.35
2018-11-21T00:47:06.397Z,1.34
2018-11-21T00:47:10.701Z,1.35
2018-11-21T00:47:15.010Z,1.34
2018-11-21T00:47:19.326Z,1.34
2018-11-21T00:47:23.678Z,1.35
2018-11-21T00:47:27.985Z,1.34
2018-11-21T00:47:32.287Z,1.36
2018-11-21T00:47:36.592Z,1.34
2018-11-21T00:47:40.795Z,1.34
2018-11-21T00:47:45.107Z,1.35
2018-11-21T00:47:49.418Z,1.35
2018-11-21T00:47:53.723Z,1.35
2018-11-21T00:47:58.029Z,1.35
2018-11-21T00:48:02.334Z,1.35
2018-11-21T00:48:06.643Z,1.36
2018-11-21T00:48:10.951Z,1.36
2018-11-21T00:48:15.266Z,1.37
2018-11-21T00:48:19.573Z,1.37
2018-11-21T00:48:23.882Z,1.37
2018-11-21T00:48:28.188Z,1.37
2018-11-21T00:48:32.383Z,1.38
2018-11-21T00:48:36.692Z,1.37
2018-11-21T00:48:41.012Z,1.37
2018-11-21T00:48:45.322Z,1.38
2018-11-21T00:48:49.634Z,1.38
2018-11-21T00:48:53.936Z,1.38
2018-11-21T00:48:58.248Z,1.39
2018-11-21T00:49:02.550Z,1.39
2018-11-21T00:49:06.860Z,1.38
2018-11-21T00:49:11.159Z,1.39
2018-11-21T00:49:15.462Z,1.39
2018-11-21T00:49:19.775Z,1.39
2018-11-21T00:49:24.081Z,1.4
2018-11-21T00:49:28.385Z,1.4
2018-11-21T00:49:32.691Z,1.39
2018-11-21T00:49:37.001Z,1.4
2018-11-21T00:49:41.319Z,1.4
2018-11-21T00:49:45.624Z,1.41
2018-11-21T00:49:49.935Z,1.4
2018-11-21T00:49:54.243Z,1.4
2018-11-21T00:49:58.553Z,1.41
2018-11-21T00:50:02.968Z,1.42
2018-11-21T00:50:07.186Z,1.42
2018-11-21T00:50:11.991Z,1.42
2018-11-21T00:50:16.675Z,1.43
2018-11-21T00:50:20.995Z,1.43
2018-11-21T00:50:25.303Z,1.43
2018-11-21T00:50:29.612Z,1.44
2018-11-21T00:50:33.917Z,1.43
2018-11-21T00:50:38.259Z,1.46
2018-11-21T00:50:42.581Z,1.45
2018-11-21T00:50:46.893Z,1.44
2018-11-21T00:50:51.244Z,1.45
2018-11-21T00:50:55.553Z,1.45
2018-11-21T00:50:59.857Z,1.45
2018-11-21T00:51:04.316Z,1.45
2018-11-21T00:51:08.626Z,1.45
2018-11-21T00:51:13.638Z,1.46
2018-11-21T00:51:17.968Z,1.45
2018-11-21T00:51:22.282Z,1.47
2018-11-21T00:51:26.588Z,1.47
2018-11-21T00:51:30.898Z,1.46
2018-11-21T00:51:35.215Z,1.46
2018-11-21T00:51:39.548Z,1.47
2018-11-21T00:51:43.895Z,1.47
2018-11-21T00:51:48.201Z,1.46
2018-11-21T00:51:52.513Z,1.46
2018-11-21T00:51:56.710Z,1.46
2018-11-21T00:52:01.021Z,1.46
2018-11-21T00:52:05.349Z,1.46
2018-11-21T00:52:09.654Z,1.47
2018-11-21T00:52:13.963Z,1.46
2018-11-21T00:52:18.272Z,1.47
2018-11-21T00:52:22.583Z,1.47
2018-11-21T00:52:26.891Z,1.48
2018-11-21T00:52:31.200Z,1.47
2018-11-21T00:52:35.511Z,1.48
2018-11-21T00:52:39.829Z,1.48
2018-11-21T00:52:44.146Z,1.47
2018-11-21T00:52:48.448Z,1.48
2018-11-21T00:52:52.754Z,1.48
2018-11-21T00:52:57.060Z,1.49
2018-11-21T00:53:01.386Z,1.48
2018-11-21T00:53:05.700Z,1.48
2018-11-21T00:53:10.003Z,1.48
2018-11-21T00:53:14.305Z,1.49
2018-11-21T00:53:18.620Z,1.48
2018-11-21T00:53:22.928Z,1.48
2018-11-21T00:53:27.128Z,1.5
2018-11-21T00:53:31.438Z,1.49
2018-11-21T00:53:35.754Z,1.49
2018-11-21T00:53:40.063Z,1.49
2018-11-21T00:53:44.375Z,1.5
2018-11-21T00:53:48.680Z,1.5
2018-11-21T00:53:52.987Z,1.49
2018-11-21T00:53:57.296Z,1.5
2018-11-21T00:54:01.700Z,1.5
2018-11-21T00:54:06.018Z,1.5
2018-11-21T00:54:10.565Z,1.5
2018-11-21T00:54:14.878Z,1.5
2018-11-21T00:54:19.189Z,1.5
2018-11-21T00:54:23.689Z,1.51
2018-11-21T00:54:27.993Z,1.5
2018-11-21T00:54:32.256Z,1.5
2018-11-21T00:54:36.624Z,1.5
2018-11-21T00:54:40.935Z,1.51
2018-11-21T00:54:45.155Z,1.5
2018-11-21T00:54:49.420Z,1.5
2018-11-21T00:54:53.827Z,1.51
2018-11-21T00:54:58.383Z,1.5
2018-11-21T00:55:03.142Z,1.51
2018-11-21T00:55:07.451Z,1.51
2018-11-21T00:55:11.761Z,1.51
2018-11-21T00:55:16.093Z,1.51
2018-11-21T00:55:20.407Z,1.52
2018-11-21T00:55:24.708Z,1.51
2018-11-21T00:55:29.015Z,1.52
2018-11-21T00:55:33.323Z,1.53
2018-11-21T00:55:37.635Z,1.52
2018-11-21T00:55:41.948Z,1.52
2018-11-21T00:55:46.257Z,1.53
2018-11-21T00:55:50.560Z,1.54
2018-11-21T00:55:54.861Z,1.53
2018-11-21T00:55:59.160Z,1.53
2018-11-21T00:56:03.562Z,1.55
2018-11-21T00:56:07.873Z,1.55
2018-11-21T00:56:12.190Z,1.54
2018-11-21T00:56:16.510Z,1.54
2018-11-21T00:56:20.815Z,1.55
2018-11-21T00:56:25.121Z,1.55
2018-11-21T00:56:29.429Z,1.56
2018-11-21T00:56:33.731Z,1.56
2018-11-21T00:56:38.863Z,1.57
2018-11-21T00:56:43.456Z,1.57
2018-11-21T00:56:47.812Z,1.57
2018-11-21T00:56:52.145Z,1.57
2018-11-21T00:56:56.453Z,1.57
2018-11-21T00:57:01.846Z,1.58
2018-11-21T00:57:06.167Z,1.58
2018-11-21T00:57:10.467Z,1.58
2018-11-21T00:57:14.665Z,1.58
2018-11-21T00:57:18.974Z,1.58
2018-11-21T00:57:24.948Z,1.59
2018-11-21T00:57:29.258Z,1.59
2018-11-21T00:57:33.573Z,1.6
2018-11-21T00:57:37.781Z,1.59
2018-11-21T00:57:42.084Z,1.59
2018-11-21T00:57:46.396Z,1.6
2018-11-21T00:57:50.594Z,1.59
2018-11-21T00:57:55.087Z,1.6